createdAt,value
2023-05-16T00:03:20.951Z,99069.38
2023-05-16T00:07:23.644Z,99067.09
2023-05-16T00:11:26.366Z,99064.25
2023-05-16T00:15:30.796Z,99071.50
2023-05-16T00:19:33.439Z,99064.44
2023-05-16T00:23:36.150Z,99061.25
2023-05-16T00:27:38.774Z,99064.03
2023-05-16T00:31:42.930Z,99055.50
2023-05-16T00:35:45.641Z,99059.16
2023-05-16T00:39:48.276Z,99048.97
2023-05-16T00:43:50.883Z,99052.16
2023-05-16T00:47:54.985Z,99054.13
2023-05-16T00:51:58.452Z,99047.44
2023-05-16T00:56:01.112Z,99053.75
2023-05-16T01:00:03.870Z,99056.75
2023-05-16T01:04:08.950Z,99054.78
2023-05-16T01:08:11.667Z,99055.97
2023-05-16T01:12:22.614Z,99057.03
2023-05-16T01:16:28.418Z,99046.56
2023-05-16T01:20:37.018Z,99047.06
2023-05-16T01:24:45.270Z,99045.81
2023-05-16T01:28:50.352Z,99039.88
2023-05-16T01:32:53.076Z,99045.16
2023-05-16T01:37:04.410Z,99049.19
2023-05-16T01:41:10.184Z,99042.84
2023-05-16T01:45:20.064Z,99046.13
2023-05-16T01:49:27.777Z,99045.56
2023-05-16T01:53:35.091Z,99047.84
2023-05-16T01:57:37.982Z,99039.88
2023-05-16T02:01:42.076Z,99054.94
2023-05-16T02:05:44.789Z,99050.69
2023-05-16T02:09:47.505Z,99047.28
2023-05-16T02:13:50.173Z,99052.22
2023-05-16T02:17:54.400Z,99050.63
2023-05-16T02:21:57.256Z,99055.03
2023-05-16T02:25:59.962Z,99052.97
2023-05-16T02:30:02.630Z,99062.25
2023-05-16T02:34:07.233Z,99062.06
2023-05-16T02:38:10.162Z,99058.00
2023-05-16T02:42:13.042Z,99053.91
2023-05-16T02:46:23.254Z,99051.72
2023-05-16T02:50:27.539Z,99059.84
2023-05-16T02:54:30.221Z,99060.25
2023-05-16T02:58:32.823Z,99056.66
2023-05-16T03:02:35.463Z,99076.16
2023-05-16T03:06:39.470Z,99075.38
2023-05-16T03:10:42.215Z,99068.41
2023-05-16T03:14:45.304Z,99065.22
2023-05-16T03:18:47.906Z,99071.75
2023-05-16T03:22:52.183Z,99070.63
2023-05-16T03:26:55.108Z,99082.94
2023-05-16T03:30:57.709Z,99081.81
2023-05-16T03:35:00.531Z,99084.88
2023-05-16T03:39:04.806Z,99076.31
2023-05-16T03:43:07.403Z,99086.63
2023-05-16T03:47:10.060Z,99094.28
2023-05-16T03:51:12.937Z,99095.88
2023-05-16T03:55:17.067Z,99099.44
2023-05-16T03:59:19.824Z,99100.22
2023-05-16T04:03:28.414Z,99109.13
2023-05-16T04:07:31.290Z,99108.41
2023-05-16T04:11:35.361Z,99110.50
2023-05-16T04:15:37.944Z,99115.34
2023-05-16T04:19:40.900Z,99127.09
2023-05-16T04:23:43.577Z,99128.75
2023-05-16T04:27:47.573Z,99129.47
2023-05-16T04:31:50.333Z,99130.28
2023-05-16T04:35:54.700Z,99135.66
2023-05-16T04:39:57.345Z,99138.22
2023-05-16T04:44:03.528Z,99142.53
2023-05-16T04:48:06.620Z,99137.41
2023-05-16T04:52:09.985Z,99142.47
2023-05-16T04:56:12.677Z,99156.94
2023-05-16T05:00:17.700Z,99147.44
2023-05-16T05:04:20.655Z,99141.06
2023-05-16T05:08:23.469Z,99122.66
2023-05-16T05:12:27.135Z,99162.50
2023-05-16T05:16:30.952Z,99160.41
2023-05-16T05:20:33.558Z,99175.16
2023-05-16T05:24:36.368Z,99183.50
2023-05-16T05:28:39.396Z,99177.09
2023-05-16T05:32:44.008Z,99178.81
2023-05-16T05:36:46.662Z,99184.97
2023-05-16T05:40:49.587Z,99193.53
2023-05-16T05:44:52.283Z,99196.19
2023-05-16T05:48:56.334Z,99186.34
2023-05-16T05:52:59.004Z,99207.22
2023-05-16T05:57:01.706Z,99204.91
2023-05-16T06:01:04.469Z,99212.59
2023-05-16T06:05:09.755Z,99215.44
2023-05-16T06:09:12.703Z,99221.16
2023-05-16T06:13:15.569Z,99222.88
2023-05-16T06:17:18.359Z,99227.75
2023-05-16T06:21:22.480Z,99226.25
2023-05-16T06:25:25.373Z,99228.69
2023-05-16T06:29:28.165Z,99240.38
2023-05-16T06:33:30.867Z,99237.00
2023-05-16T06:37:34.835Z,99239.25
2023-05-16T06:41:37.515Z,99241.88
2023-05-16T06:45:40.528Z,99248.53
2023-05-16T06:49:43.177Z,99257.22
2023-05-16T06:53:47.193Z,99262.13
2023-05-16T06:57:49.959Z,99253.41
2023-05-16T07:01:52.973Z,99256.09
2023-05-16T07:05:57.249Z,99263.75
2023-05-16T07:10:01.373Z,99263.50
2023-05-16T07:14:04.108Z,99266.91
2023-05-16T07:18:07.014Z,99266.59
2023-05-16T07:22:10.285Z,99262.09
2023-05-16T07:26:14.460Z,99229.09
2023-05-16T07:30:17.816Z,99270.44
2023-05-16T07:34:20.700Z,99280.16
2023-05-16T07:38:23.379Z,99284.00
2023-05-16T07:42:27.493Z,99287.38
2023-05-16T07:46:30.465Z,99296.34
2023-05-16T07:50:33.283Z,99305.31
2023-05-16T07:54:36.674Z,99302.84
2023-05-16T07:58:40.941Z,99301.50
2023-05-16T08:02:44.597Z,99309.59
2023-05-16T08:06:47.708Z,99297.91
2023-05-16T08:10:50.420Z,99288.63
2023-05-16T08:14:54.568Z,99315.13
2023-05-16T08:18:57.373Z,99313.13
2023-05-16T08:23:00.127Z,99318.22
2023-05-16T08:27:02.869Z,99327.34
2023-05-16T08:31:07.438Z,99326.63
2023-05-16T08:35:11.095Z,99329.69
2023-05-16T08:39:13.888Z,99345.31
2023-05-16T08:43:16.754Z,99346.19
2023-05-16T08:47:22.803Z,99336.56
2023-05-16T08:51:26.826Z,99354.16
2023-05-16T08:55:30.074Z,99366.91
2023-05-16T08:59:33.123Z,99374.53
2023-05-16T09:03:38.253Z,99368.38
2023-05-16T09:07:41.658Z,99375.81
2023-05-16T09:11:44.458Z,99380.88
2023-05-16T09:15:47.931Z,99380.53
2023-05-16T09:19:56.575Z,99384.22
2023-05-16T09:24:04.872Z,99368.50
2023-05-16T09:28:11.894Z,99387.16
2023-05-16T09:32:16.631Z,99380.16
2023-05-16T09:36:20.658Z,99356.25
2023-05-16T09:40:23.740Z,99384.31
2023-05-16T09:44:26.494Z,99386.75
2023-05-16T09:48:29.384Z,99393.66
2023-05-16T09:52:33.580Z,99386.84
2023-05-16T09:56:50.029Z,99391.97
2023-05-16T10:00:52.736Z,99390.78
2023-05-16T10:04:55.400Z,99392.28
2023-05-16T10:09:02.823Z,99391.81
2023-05-16T10:13:07.250Z,99389.66
2023-05-16T10:17:11.848Z,99393.50
2023-05-16T10:21:16.360Z,99393.88
2023-05-16T10:25:25.651Z,99387.97
2023-05-16T10:29:30.603Z,99388.03
2023-05-16T10:33:37.008Z,99374.00
2023-05-16T10:37:40.117Z,99387.53
2023-05-16T10:41:44.542Z,99375.34
2023-05-16T10:45:55.655Z,99369.19
2023-05-16T10:49:58.517Z,99384.00
2023-05-16T10:54:06.383Z,99383.44
2023-05-16T10:58:10.402Z,99333.09
2023-05-16T11:02:34.865Z,99362.66
2023-05-16T11:06:46.676Z,99364.13
2023-05-16T11:10:49.550Z,99374.78
2023-05-16T11:14:53.729Z,99377.22
2023-05-16T11:18:56.952Z,99380.44
2023-05-16T11:23:22.424Z,99372.69
2023-05-16T11:27:27.227Z,99378.03
2023-05-16T11:31:31.337Z,99363.94
2023-05-16T11:35:34.548Z,99380.94
2023-05-16T11:39:37.369Z,99378.81
2023-05-16T11:43:45.356Z,99367.66
2023-05-16T11:47:50.670Z,99370.56
2023-05-16T11:51:57.466Z,99371.09
2023-05-16T11:56:02.194Z,99366.28
2023-05-16T12:00:08.089Z,99362.00
2023-05-16T12:04:13.051Z,99369.50
2023-05-16T12:08:17.368Z,99374.78
2023-05-16T12:12:21.539Z,99368.41
2023-05-16T12:16:24.545Z,99370.03
2023-05-16T12:20:28.655Z,99384.06
2023-05-16T12:24:32.275Z,99386.53
2023-05-16T12:28:35.657Z,99384.47
2023-05-16T12:32:38.737Z,99378.28
2023-05-16T12:36:43.419Z,99377.19
2023-05-16T12:40:46.720Z,99377.16
2023-05-16T12:44:49.397Z,99379.03
2023-05-16T12:49:02.830Z,99389.41
2023-05-16T12:53:07.703Z,99377.47
2023-05-16T12:57:10.770Z,99384.88
2023-05-16T13:01:16.355Z,99390.69
2023-05-16T13:05:20.509Z,99399.38
2023-05-16T13:09:25.108Z,99409.63
2023-05-16T13:13:36.059Z,99391.00
2023-05-16T13:17:40.757Z,99401.19
2023-05-16T13:21:43.450Z,99385.19
2023-05-16T13:25:49.330Z,99402.22
2023-05-16T13:29:52.346Z,99416.59
2023-05-16T13:33:55.104Z,99423.44
2023-05-16T13:37:57.784Z,99422.66
2023-05-16T13:42:03.157Z,99425.94
2023-05-16T13:46:06.089Z,99398.25
2023-05-16T13:50:10.483Z,99439.25
2023-05-16T13:54:13.263Z,99421.50
2023-05-16T13:58:17.393Z,99412.03
2023-05-16T14:02:20.114Z,99421.38
2023-05-16T14:06:22.786Z,99423.69
2023-05-16T14:10:26.535Z,99430.19
2023-05-16T14:14:30.849Z,99432.78
2023-05-16T14:18:33.574Z,99437.38
2023-05-16T14:22:36.324Z,99435.50
2023-05-16T14:26:39.110Z,99441.91
2023-05-16T14:30:43.309Z,99422.13
2023-05-16T14:34:46.547Z,99429.63
2023-05-16T14:38:49.430Z,99446.13
2023-05-16T14:42:52.200Z,99454.50
2023-05-16T14:46:56.312Z,99452.28
2023-05-16T14:50:58.970Z,99443.75
2023-05-16T14:55:02.036Z,99437.28
2023-05-16T14:59:04.591Z,99449.84
2023-05-16T15:03:08.794Z,99444.44
2023-05-16T15:07:11.796Z,99460.75
2023-05-16T15:11:14.940Z,99464.72
2023-05-16T15:15:17.825Z,99471.34
2023-05-16T15:19:22.063Z,99468.03
2023-05-16T15:23:24.776Z,99471.13
2023-05-16T15:27:27.456Z,99467.19
2023-05-16T15:31:32.094Z,99458.81
2023-05-16T15:35:36.330Z,99463.41
2023-05-16T15:39:39.050Z,99472.47
2023-05-16T15:43:41.998Z,99462.13
2023-05-16T15:47:44.727Z,99463.03
2023-05-16T15:51:49.239Z,99454.47
2023-05-16T15:55:52.236Z,99466.03
2023-05-16T15:59:54.904Z,99464.00
2023-05-16T16:03:57.871Z,99471.03
2023-05-16T16:08:02.056Z,99470.25
2023-05-16T16:12:05.123Z,99467.28
2023-05-16T16:16:08.273Z,99469.88
2023-05-16T16:20:11.830Z,99476.81
2023-05-16T16:24:15.940Z,99460.81
2023-05-16T16:28:19.635Z,99476.31
2023-05-16T16:32:23.447Z,99460.06
2023-05-16T16:36:26.460Z,99466.94
2023-05-16T16:40:31.740Z,99465.19
2023-05-16T16:44:34.866Z,99470.34
2023-05-16T16:48:37.800Z,99471.28
2023-05-16T16:52:40.583Z,99475.88
2023-05-16T16:56:46.007Z,99475.94
2023-05-16T17:00:49.097Z,99468.88
2023-05-16T17:04:52.061Z,99472.97
2023-05-16T17:08:54.736Z,99467.63
2023-05-16T17:13:05.905Z,99468.75
2023-05-16T17:17:08.700Z,99472.94
2023-05-16T17:21:12.903Z,99474.34
2023-05-16T17:25:15.764Z,99469.22
2023-05-16T17:29:20.116Z,99476.03
2023-05-16T17:33:22.981Z,99475.50
2023-05-16T17:37:26.522Z,99469.25
2023-05-16T17:41:29.197Z,99466.56
2023-05-16T17:45:33.671Z,99470.25
2023-05-16T17:49:36.428Z,99474.13
2023-05-16T17:53:39.226Z,99476.56
2023-05-16T17:57:41.914Z,99471.47
2023-05-16T18:01:46.366Z,99491.69
2023-05-16T18:05:49.720Z,99494.78
2023-05-16T18:09:53.700Z,99498.41
2023-05-16T18:13:56.483Z,99507.59
2023-05-16T18:18:00.692Z,99525.75
2023-05-16T18:22:06.983Z,99521.22
2023-05-16T18:26:10.153Z,99524.13
2023-05-16T18:30:13.760Z,99524.84
2023-05-16T18:34:17.840Z,99529.25
2023-05-16T18:38:31.262Z,99536.97
2023-05-16T18:42:35.046Z,99538.88
2023-05-16T18:46:37.729Z,99549.78
2023-05-16T18:50:41.906Z,99556.28
2023-05-16T18:54:44.701Z,99559.97
2023-05-16T18:58:47.850Z,99565.78
2023-05-16T19:02:51.142Z,99570.78
2023-05-16T19:06:56.406Z,99564.69
2023-05-16T19:10:59.458Z,99563.66
2023-05-16T19:15:02.125Z,99580.25
2023-05-16T19:19:07.786Z,99579.94
2023-05-16T19:23:12.105Z,99591.66
2023-05-16T19:27:14.912Z,99603.78
2023-05-16T19:31:17.741Z,99612.53
2023-05-16T19:35:20.369Z,99624.00
2023-05-16T19:39:24.445Z,99630.34
2023-05-16T19:43:27.170Z,99637.53
2023-05-16T19:47:29.899Z,99639.50
2023-05-16T19:55:56.824Z,99654.44
2023-05-16T19:59:59.500Z,99665.88
2023-05-16T20:04:05.411Z,99670.72
2023-05-16T20:08:09.433Z,99675.97
2023-05-16T20:12:13.737Z,99676.19
2023-05-16T20:16:17.771Z,99687.88
2023-05-16T20:20:20.409Z,99695.03
2023-05-16T20:24:23.097Z,99687.94
2023-05-16T20:28:27.164Z,99691.31
2023-05-16T20:32:29.894Z,99701.44
2023-05-16T20:36:32.690Z,99696.09
2023-05-16T20:40:35.363Z,99711.44
2023-05-16T20:44:39.690Z,99706.59
2023-05-16T20:48:42.367Z,99714.84
2023-05-16T20:52:45.063Z,99720.00
2023-05-16T20:56:47.822Z,99724.38
2023-05-16T21:00:52.374Z,99725.91
2023-05-16T21:04:56.070Z,99714.34
2023-05-16T21:08:58.754Z,99716.72
2023-05-16T21:13:01.460Z,99722.13
2023-05-16T21:17:05.780Z,99731.63
2023-05-16T21:21:08.430Z,99732.81
2023-05-16T21:25:11.326Z,99744.59
2023-05-16T21:29:14.007Z,99746.72
2023-05-16T21:33:18.181Z,99746.03
2023-05-16T21:37:21.545Z,99745.31
2023-05-16T21:41:24.328Z,99754.00
2023-05-16T21:45:27.220Z,99759.56
2023-05-16T21:49:32.909Z,99762.22
2023-05-16T21:53:35.664Z,99764.59
2023-05-16T21:57:38.650Z,99768.91
2023-05-16T22:01:41.313Z,99772.50
2023-05-16T22:05:45.999Z,99784.22
2023-05-16T22:09:50.836Z,99776.56
2023-05-16T22:13:53.579Z,99770.50
2023-05-16T22:17:57.513Z,99773.38
2023-05-16T22:22:01.667Z,99771.47
2023-05-16T22:26:04.764Z,99775.75
2023-05-16T22:30:08.815Z,99786.25
2023-05-16T22:34:11.560Z,99779.16
2023-05-16T22:38:15.762Z,99776.91
2023-05-16T22:42:18.376Z,99780.09
2023-05-16T22:46:21.178Z,99773.69
2023-05-16T22:50:23.858Z,99783.66
2023-05-16T22:54:27.856Z,99738.22
2023-05-16T22:58:30.679Z,99771.47
2023-05-16T23:02:33.404Z,99772.50
2023-05-16T23:06:36.160Z,99770.00
2023-05-16T23:10:40.384Z,99773.13
2023-05-16T23:14:43.038Z,99772.41
2023-05-16T23:18:45.823Z,99772.78
2023-05-16T23:22:48.555Z,99770.59
2023-05-16T23:26:52.663Z,99771.81
2023-05-16T23:30:55.379Z,99772.56
2023-05-16T23:34:58.016Z,99764.84
2023-05-16T23:39:00.677Z,99720.72
2023-05-16T23:43:04.682Z,99785.59
2023-05-16T23:47:07.538Z,99784.75
2023-05-16T23:51:10.178Z,99767.13
2023-05-16T23:55:13.525Z,99778.66
2023-05-16T23:59:18.912Z,99780.94
